createdAt,value
2023-05-24T00:00:00.421Z,0.67
2023-05-24T00:01:00.501Z,0.70
2023-05-24T00:02:00.548Z,0.66
2023-05-24T00:03:00.691Z,0.68
2023-05-24T00:04:00.864Z,0.66
2023-05-24T00:05:00.829Z,0.67
2023-05-24T00:06:00.754Z,0.68
2023-05-24T00:07:00.763Z,0.64
2023-05-24T00:08:00.812Z,0.69
2023-05-24T00:09:00.804Z,0.69
2023-05-24T00:10:00.891Z,0.69
2023-05-24T00:11:00.926Z,0.68
2023-05-24T00:12:00.986Z,0.63
2023-05-24T00:13:01.057Z,0.63
2023-05-24T00:14:01.068Z,0.61
2023-05-24T00:15:01.139Z,0.60
2023-05-24T00:16:01.146Z,0.60
2023-05-24T00:17:01.218Z,0.61
2023-05-24T00:18:01.325Z,0.62
2023-05-24T00:19:01.303Z,0.63
2023-05-24T00:20:01.368Z,0.62
2023-05-24T00:21:01.448Z,0.61
2023-05-24T00:22:01.436Z,0.60
2023-05-24T00:23:01.479Z,0.63
2023-05-24T00:24:01.529Z,0.64
2023-05-24T00:25:01.560Z,0.61
2023-05-24T00:26:01.603Z,0.63
2023-05-24T00:27:01.679Z,0.65
2023-05-24T00:28:01.715Z,0.64
2023-05-24T00:29:01.776Z,0.64
2023-05-24T00:30:01.826Z,0.63
2023-05-24T00:31:01.892Z,0.63
2023-05-24T00:32:01.932Z,0.64
2023-05-24T00:33:02.005Z,0.64
2023-05-24T00:34:01.997Z,0.63
2023-05-24T00:35:02.085Z,0.64
2023-05-24T00:36:02.113Z,0.63
2023-05-24T00:37:02.150Z,0.62
2023-05-24T00:38:02.193Z,0.62
2023-05-24T00:39:02.250Z,0.63
2023-05-24T00:40:02.327Z,0.60
2023-05-24T00:41:02.323Z,0.61
2023-05-24T00:42:02.400Z,0.61
2023-05-24T00:43:02.437Z,0.60
2023-05-24T00:44:02.495Z,0.60
2023-05-24T00:45:02.548Z,0.59
2023-05-24T00:46:02.662Z,0.58
2023-05-24T00:47:02.670Z,0.56
2023-05-24T00:48:02.750Z,0.58
2023-05-24T00:49:02.760Z,0.57
2023-05-24T00:50:02.795Z,0.53
2023-05-24T00:51:02.879Z,0.54
2023-05-24T00:52:02.957Z,0.53
2023-05-24T00:53:02.982Z,0.53
2023-05-24T00:54:03.080Z,0.54
2023-05-24T00:55:03.133Z,0.54
2023-05-24T00:56:03.160Z,0.54
2023-05-24T00:57:03.226Z,0.53
2023-05-24T00:58:03.258Z,0.52
2023-05-24T00:59:03.346Z,0.53
2023-05-24T01:00:03.411Z,0.52
2023-05-24T01:01:03.513Z,0.51
2023-05-24T01:02:03.685Z,0.53
2023-05-24T01:03:03.605Z,0.51
2023-05-24T01:04:03.629Z,0.51
2023-05-24T01:05:03.683Z,0.50
2023-05-24T01:06:03.762Z,0.50
2023-05-24T01:07:03.845Z,0.51
2023-05-24T01:08:03.864Z,0.50
2023-05-24T01:09:03.939Z,0.51
2023-05-24T01:10:03.995Z,0.51
2023-05-24T01:11:04.059Z,0.52
2023-05-24T01:12:04.102Z,0.53
2023-05-24T01:13:04.179Z,0.53
2023-05-24T01:14:04.207Z,0.53
2023-05-24T01:15:04.289Z,0.54
2023-05-24T01:16:04.368Z,0.53
2023-05-24T01:17:04.422Z,0.56
2023-05-24T01:18:04.566Z,0.53
2023-05-24T01:19:04.555Z,0.53
2023-05-24T01:20:04.611Z,0.52
2023-05-24T01:21:04.674Z,0.52
2023-05-24T01:22:04.769Z,0.52
2023-05-24T01:23:04.778Z,0.54
2023-05-24T01:24:04.852Z,0.53
2023-05-24T01:25:04.915Z,0.54
2023-05-24T01:26:05.003Z,0.54
2023-05-24T01:27:05.071Z,0.54
2023-05-24T01:28:05.128Z,0.52
2023-05-24T01:29:05.216Z,0.52
2023-05-24T01:30:05.239Z,0.53
2023-05-24T01:31:05.325Z,0.52
2023-05-24T01:32:05.344Z,0.55
2023-05-24T01:33:05.400Z,0.53
2023-05-24T01:34:05.453Z,0.54
2023-05-24T01:35:05.532Z,0.54
2023-05-24T01:36:05.555Z,0.56
2023-05-24T01:37:05.653Z,0.56
2023-05-24T01:38:05.726Z,0.57
2023-05-24T01:39:05.760Z,0.55
2023-05-24T01:40:05.840Z,0.55
2023-05-24T01:41:05.931Z,0.56
2023-05-24T01:42:05.952Z,0.56
2023-05-24T01:43:05.991Z,0.57
2023-05-24T01:44:06.051Z,0.57
2023-05-24T01:45:06.090Z,0.57
2023-05-24T01:46:06.162Z,0.58
2023-05-24T01:47:06.252Z,0.57
2023-05-24T01:48:06.371Z,0.58
2023-05-24T01:49:06.286Z,0.57
2023-05-24T01:50:06.308Z,0.59
2023-05-24T01:51:06.299Z,0.59
2023-05-24T01:52:06.422Z,0.58
2023-05-24T01:53:06.395Z,0.56
2023-05-24T01:54:06.398Z,0.55
2023-05-24T01:55:06.401Z,0.57
2023-05-24T01:56:06.448Z,0.56
2023-05-24T01:57:06.458Z,0.54
2023-05-24T01:58:06.483Z,0.56
2023-05-24T01:59:06.526Z,0.57
2023-05-24T02:00:06.549Z,0.57
2023-05-24T02:01:06.643Z,0.58
2023-05-24T02:02:06.624Z,0.59
2023-05-24T02:03:06.798Z,0.57
2023-05-24T02:04:06.636Z,0.58
2023-05-24T02:05:06.681Z,0.60
2023-05-24T02:06:06.719Z,0.60
2023-05-24T02:07:06.727Z,0.61
2023-05-24T02:08:06.800Z,0.61
2023-05-24T02:09:06.837Z,0.61
2023-05-24T02:10:06.810Z,0.61
2023-05-24T02:11:06.868Z,0.63
2023-05-24T02:12:06.937Z,0.61
2023-05-24T02:13:06.985Z,0.60
2023-05-24T02:14:07.016Z,0.60
2023-05-24T02:15:07.077Z,0.58
2023-05-24T02:16:07.063Z,0.61
2023-05-24T02:17:07.162Z,0.61
2023-05-24T02:18:07.137Z,0.60
2023-05-24T02:19:07.160Z,0.59
2023-05-24T02:20:07.221Z,0.60
2023-05-24T02:21:07.181Z,0.59
2023-05-24T02:22:07.224Z,0.60
2023-05-24T02:23:07.244Z,0.57
2023-05-24T02:24:07.266Z,0.57
2023-05-24T02:25:07.275Z,0.56
2023-05-24T02:27:07.289Z,0.55
2023-05-24T02:28:07.265Z,0.54
2023-05-24T02:29:07.295Z,0.54
2023-05-24T02:30:07.259Z,0.54
2023-05-24T02:31:07.281Z,0.54
2023-05-24T02:32:07.261Z,0.53
2023-05-24T02:33:07.303Z,0.54
2023-05-24T02:34:07.253Z,0.53
2023-05-24T02:35:07.270Z,0.54
2023-05-24T02:36:07.271Z,0.54
2023-05-24T02:37:07.282Z,0.55
2023-05-24T02:38:07.280Z,0.55
2023-05-24T02:39:07.286Z,0.56
2023-05-24T02:40:07.284Z,0.58
2023-05-24T02:41:07.322Z,0.59
2023-05-24T02:42:07.333Z,0.59
2023-05-24T02:43:07.357Z,0.58
2023-05-24T02:44:07.339Z,0.59
2023-05-24T02:45:07.360Z,0.59
2023-05-24T02:46:07.410Z,0.60
2023-05-24T02:47:07.409Z,0.61
2023-05-24T02:48:07.452Z,0.61
2023-05-24T02:49:07.433Z,0.60
2023-05-24T02:50:07.454Z,0.60
2023-05-24T02:51:07.482Z,0.61
2023-05-24T02:52:07.445Z,0.62
2023-05-24T02:53:07.457Z,0.62
2023-05-24T02:54:07.436Z,0.62
2023-05-24T02:55:07.494Z,0.61
2023-05-24T02:56:07.473Z,0.61
2023-05-24T02:57:07.429Z,0.60
2023-05-24T02:58:07.448Z,0.59
2023-05-24T02:59:07.442Z,0.58
2023-05-24T03:00:07.422Z,0.59
2023-05-24T03:01:07.428Z,0.58
2023-05-24T03:02:07.470Z,0.57
2023-05-24T03:03:07.498Z,0.57
2023-05-24T03:04:07.487Z,0.56
2023-05-24T03:05:07.416Z,0.56
2023-05-24T03:06:07.407Z,0.58
2023-05-24T03:07:07.413Z,0.58
2023-05-24T03:08:07.395Z,0.59
2023-05-24T03:09:07.431Z,0.60
2023-05-24T03:10:07.406Z,0.59
2023-05-24T03:11:07.436Z,0.59
2023-05-24T03:12:07.400Z,0.60
2023-05-24T03:13:07.396Z,0.60
2023-05-24T03:14:07.409Z,0.60
2023-05-24T03:15:07.415Z,0.60
2023-05-24T03:16:07.432Z,0.61
2023-05-24T03:17:07.376Z,0.60
2023-05-24T03:18:07.478Z,0.59
2023-05-24T03:19:09.879Z,0.60
2023-05-24T03:20:07.502Z,0.60
2023-05-24T03:21:07.453Z,0.61
2023-05-24T03:22:07.398Z,0.62
2023-05-24T03:23:07.379Z,0.62
2023-05-24T03:24:07.358Z,0.62
2023-05-24T03:25:07.383Z,0.65
2023-05-24T03:26:07.343Z,0.65
2023-05-24T03:27:07.363Z,0.65
2023-05-24T03:28:07.349Z,0.65
2023-05-24T03:29:07.367Z,0.65
2023-05-24T03:30:07.386Z,0.64
2023-05-24T03:31:07.321Z,0.64
2023-05-24T03:32:07.367Z,0.63
2023-05-24T03:33:07.355Z,0.63
2023-05-24T03:34:07.290Z,0.63
2023-05-24T03:35:07.299Z,0.64
2023-05-24T03:36:07.277Z,0.64
2023-05-24T03:37:07.269Z,0.64
2023-05-24T03:38:07.249Z,0.63
2023-05-24T03:39:07.253Z,0.60
2023-05-24T03:40:07.290Z,0.59
2023-05-24T03:41:07.252Z,0.59
2023-05-24T03:42:07.267Z,0.56
2023-05-24T03:43:07.248Z,0.56
2023-05-24T03:44:07.252Z,0.56
2023-05-24T03:45:07.235Z,0.56
2023-05-24T03:46:07.217Z,0.56
2023-05-24T03:47:07.192Z,0.54
2023-05-24T03:48:07.193Z,0.54
2023-05-24T03:49:07.205Z,0.53
2023-05-24T03:50:07.176Z,0.52
2023-05-24T03:51:07.172Z,0.52
2023-05-24T03:52:07.190Z,0.53
2023-05-24T03:53:07.155Z,0.53
2023-05-24T03:54:07.186Z,0.53
2023-05-24T03:55:07.126Z,0.54
2023-05-24T03:56:07.153Z,0.54
2023-05-24T03:57:07.144Z,0.55
2023-05-24T03:58:07.082Z,0.55
2023-05-24T03:59:07.098Z,0.56
2023-05-24T04:00:07.114Z,0.56
2023-05-24T04:01:07.073Z,0.56
2023-05-24T04:02:07.079Z,0.56
2023-05-24T04:03:07.182Z,0.56
2023-05-24T04:04:07.083Z,0.55
2023-05-24T04:05:07.037Z,0.54
2023-05-24T04:06:07.060Z,0.54
2023-05-24T04:07:07.053Z,0.57
2023-05-24T04:08:07.033Z,0.56
2023-05-24T04:09:07.032Z,0.56
2023-05-24T04:10:06.996Z,0.56
2023-05-24T04:11:07.001Z,0.56
2023-05-24T04:12:07.031Z,0.55
2023-05-24T04:13:06.996Z,0.56
2023-05-24T04:14:06.986Z,0.57
2023-05-24T04:15:06.967Z,0.57
2023-05-24T04:16:06.979Z,0.57
2023-05-24T04:17:07.029Z,0.56
2023-05-24T04:18:07.056Z,0.56
2023-05-24T04:19:06.920Z,0.57
2023-05-24T04:20:06.991Z,0.56
2023-05-24T04:21:06.936Z,0.56
2023-05-24T04:22:06.904Z,0.56
2023-05-24T04:23:06.924Z,0.56
2023-05-24T04:24:06.922Z,0.55
2023-05-24T04:25:07.014Z,0.57
2023-05-24T04:26:06.913Z,0.57
2023-05-24T04:27:06.877Z,0.57
2023-05-24T04:28:06.912Z,0.57
2023-05-24T04:29:06.865Z,0.56
2023-05-24T04:30:06.879Z,0.57
2023-05-24T04:31:06.953Z,0.57
2023-05-24T04:32:06.836Z,0.56
2023-05-24T04:33:06.986Z,0.56
2023-05-24T04:34:06.839Z,0.57
2023-05-24T04:35:06.806Z,0.59
2023-05-24T04:36:06.847Z,0.57
2023-05-24T04:37:06.830Z,0.56
2023-05-24T04:38:06.802Z,0.57
2023-05-24T04:39:06.824Z,0.55
2023-05-24T04:40:06.790Z,0.55
2023-05-24T04:41:06.791Z,0.55
2023-05-24T04:42:06.769Z,0.55
2023-05-24T04:43:06.777Z,0.55
2023-05-24T04:44:06.769Z,0.54
2023-05-24T04:45:06.745Z,0.56
2023-05-24T04:46:08.937Z,0.55
2023-05-24T04:47:07.227Z,0.56
2023-05-24T04:48:07.070Z,0.54
2023-05-24T04:49:07.045Z,0.54
2023-05-24T04:50:07.076Z,0.54
2023-05-24T04:51:07.126Z,0.57
2023-05-24T04:52:07.136Z,0.57
2023-05-24T04:53:07.167Z,0.57
2023-05-24T04:54:07.215Z,0.57
2023-05-24T04:55:07.216Z,0.57
2023-05-24T04:56:07.239Z,0.57
2023-05-24T04:57:07.248Z,0.56
2023-05-24T04:58:07.271Z,0.59
2023-05-24T04:59:07.285Z,0.59
2023-05-24T05:00:07.326Z,0.59
2023-05-24T05:01:07.349Z,0.59
2023-05-24T05:02:07.463Z,0.60
2023-05-24T05:03:07.473Z,0.62
2023-05-24T05:04:07.575Z,0.63
2023-05-24T05:05:07.422Z,0.63
2023-05-24T05:06:07.447Z,0.64
2023-05-24T05:07:07.454Z,0.66
2023-05-24T05:08:07.465Z,0.64
2023-05-24T05:09:07.484Z,0.63
2023-05-24T05:10:07.519Z,0.64
2023-05-24T05:11:07.540Z,0.63
2023-05-24T05:12:07.553Z,0.61
2023-05-24T05:13:07.568Z,0.62
2023-05-24T05:14:07.588Z,0.61
2023-05-24T05:15:07.599Z,0.62
2023-05-24T05:16:07.626Z,0.62
2023-05-24T05:17:07.658Z,0.62
2023-05-24T05:18:07.734Z,0.63
2023-05-24T05:19:07.686Z,0.64
2023-05-24T05:20:07.741Z,0.66
2023-05-24T05:21:07.722Z,0.67
2023-05-24T05:22:07.761Z,0.66
2023-05-24T05:23:07.768Z,0.67
2023-05-24T05:24:07.757Z,0.68
2023-05-24T05:25:07.804Z,0.67
2023-05-24T05:26:07.805Z,0.69
2023-05-24T05:27:07.815Z,0.68
2023-05-24T05:28:07.853Z,0.69
2023-05-24T05:29:07.859Z,0.69
2023-05-24T05:30:07.843Z,0.67
2023-05-24T05:31:07.857Z,0.69
2023-05-24T05:32:07.916Z,0.71
2023-05-24T05:33:07.991Z,0.72
2023-05-24T05:34:07.888Z,0.73
2023-05-24T05:35:07.941Z,0.74
2023-05-24T05:36:07.924Z,0.73
2023-05-24T05:37:07.940Z,0.75
2023-05-24T05:38:07.949Z,0.75
2023-05-24T05:39:07.962Z,0.75
2023-05-24T05:40:07.954Z,0.76
2023-05-24T05:41:07.971Z,0.75
2023-05-24T05:42:07.968Z,0.75
2023-05-24T05:43:07.967Z,0.76
2023-05-24T05:44:07.997Z,0.77
2023-05-24T05:45:08.109Z,0.77
2023-05-24T05:46:08.006Z,0.77
2023-05-24T05:47:07.996Z,0.75
2023-05-24T05:48:08.078Z,0.74
2023-05-24T05:49:08.045Z,0.75
2023-05-24T05:50:08.043Z,0.76
2023-05-24T05:51:08.035Z,0.75
2023-05-24T05:52:08.035Z,0.77
2023-05-24T05:53:08.062Z,0.78
2023-05-24T05:54:08.021Z,0.79
2023-05-24T05:55:08.025Z,0.77
2023-05-24T05:56:08.075Z,0.80
2023-05-24T05:57:08.078Z,0.79
2023-05-24T05:58:08.060Z,0.79
2023-05-24T05:59:08.107Z,0.79
2023-05-24T06:00:08.066Z,0.78
2023-05-24T06:01:08.089Z,0.79
2023-05-24T06:02:08.217Z,0.79
2023-05-24T06:03:08.252Z,0.79
2023-05-24T06:04:08.328Z,0.78
2023-05-24T06:05:08.175Z,0.78
2023-05-24T06:06:08.167Z,0.78
2023-05-24T06:07:08.165Z,0.80
2023-05-24T06:08:08.199Z,0.80
2023-05-24T06:09:08.204Z,0.81
2023-05-24T06:10:08.187Z,0.81
2023-05-24T06:11:08.222Z,0.80
2023-05-24T06:12:08.171Z,0.78
2023-05-24T06:13:08.207Z,0.76
2023-05-24T06:14:08.221Z,0.74
2023-05-24T06:15:08.263Z,0.73
2023-05-24T06:16:08.274Z,0.72
2023-05-24T06:17:08.280Z,0.70
2023-05-24T06:18:08.270Z,0.70
2023-05-24T06:19:08.306Z,0.70
2023-05-24T06:20:08.376Z,0.69
2023-05-24T06:21:08.326Z,0.72
2023-05-24T06:22:08.303Z,0.73
2023-05-24T06:23:08.339Z,0.72
2023-05-24T06:24:08.375Z,0.73
2023-05-24T06:25:08.386Z,0.75
2023-05-24T06:26:08.372Z,0.76
2023-05-24T06:27:08.389Z,0.76
2023-05-24T06:28:08.421Z,0.75
2023-05-24T06:29:08.438Z,0.77
2023-05-24T06:30:08.491Z,0.77
2023-05-24T06:31:08.485Z,0.77
2023-05-24T06:32:08.515Z,0.76
2023-05-24T06:33:08.502Z,0.77
2023-05-24T06:34:08.512Z,0.77
2023-05-24T06:35:08.535Z,0.80
2023-05-24T06:36:08.538Z,0.78
2023-05-24T06:37:08.559Z,0.80
2023-05-24T06:38:08.577Z,0.79
2023-05-24T06:39:08.550Z,0.79
2023-05-24T06:40:08.565Z,0.81
2023-05-24T06:41:08.606Z,0.81
2023-05-24T06:42:08.604Z,0.81
2023-05-24T06:43:08.588Z,0.80
2023-05-24T06:44:08.610Z,0.80
2023-05-24T06:45:08.733Z,0.83
2023-05-24T06:46:08.624Z,0.79
2023-05-24T06:47:08.680Z,0.80
2023-05-24T06:48:08.799Z,0.77
2023-05-24T06:49:08.736Z,0.78
2023-05-24T06:50:08.657Z,0.77
2023-05-24T06:51:08.649Z,0.76
2023-05-24T06:52:08.697Z,0.75
2023-05-24T06:53:08.659Z,0.73
2023-05-24T06:54:08.685Z,0.70
2023-05-24T06:55:08.714Z,0.72
2023-05-24T06:56:08.705Z,0.69
2023-05-24T06:57:08.689Z,0.71
2023-05-24T06:58:08.698Z,0.70
2023-05-24T06:59:08.747Z,0.70
2023-05-24T07:00:08.761Z,0.68
2023-05-24T07:01:08.871Z,0.67
2023-05-24T07:02:08.770Z,0.67
2023-05-24T07:03:08.780Z,0.66
2023-05-24T07:04:08.807Z,0.66
2023-05-24T07:05:08.774Z,0.67
2023-05-24T07:06:08.794Z,0.67
2023-05-24T07:07:08.790Z,0.65
2023-05-24T07:08:08.797Z,0.66
2023-05-24T07:09:08.810Z,0.66
2023-05-24T07:10:08.838Z,0.67
2023-05-24T07:11:08.885Z,0.67
2023-05-24T07:12:09.279Z,0.68
2023-05-24T07:13:08.811Z,0.64
2023-05-24T07:14:10.923Z,0.63
2023-05-24T07:15:08.837Z,0.61
2023-05-24T07:16:08.832Z,0.62
2023-05-24T07:17:08.957Z,0.63
2023-05-24T07:18:08.937Z,0.64
2023-05-24T07:19:08.833Z,0.63
2023-05-24T07:20:09.026Z,0.64
2023-05-24T07:21:08.915Z,0.65
2023-05-24T07:22:08.854Z,0.62
2023-05-24T07:23:08.873Z,0.62
2023-05-24T07:24:08.870Z,0.63
2023-05-24T07:25:08.865Z,0.63
2023-05-24T07:26:08.880Z,0.64
2023-05-24T07:27:08.866Z,0.64
2023-05-24T07:28:08.878Z,0.64
2023-05-24T07:29:08.883Z,0.64
2023-05-24T07:30:19.698Z,0.65
2023-05-24T07:31:09.907Z,0.65
2023-05-24T07:32:08.911Z,0.65
2023-05-24T07:33:09.039Z,0.64
2023-05-24T07:34:08.859Z,0.64
2023-05-24T07:35:08.874Z,0.64
2023-05-24T07:36:08.881Z,0.65
2023-05-24T07:37:08.823Z,0.65
2023-05-24T07:38:08.855Z,0.65
2023-05-24T07:39:08.812Z,0.65
2023-05-24T07:40:08.811Z,0.65
2023-05-24T07:41:08.790Z,0.64
2023-05-24T07:42:08.804Z,0.62
2023-05-24T07:43:08.782Z,0.79
2023-05-24T07:44:08.799Z,0.87
2023-05-24T07:45:08.773Z,0.82
2023-05-24T07:46:08.785Z,1.02
2023-05-24T07:47:08.749Z,1.14
2023-05-24T07:48:08.825Z,1.19
2023-05-24T07:49:08.767Z,0.96
2023-05-24T07:50:08.738Z,0.96
2023-05-24T07:51:08.740Z,1.02
2023-05-24T07:52:08.728Z,1.16
2023-05-24T07:53:08.717Z,1.37
2023-05-24T07:54:08.708Z,1.49
2023-05-24T07:55:08.721Z,1.52
2023-05-24T07:56:08.689Z,1.67
2023-05-24T07:57:09.544Z,1.85
2023-05-24T07:58:08.746Z,2.15
2023-05-24T07:59:08.793Z,2.34
2023-05-24T08:00:08.819Z,2.65
2023-05-24T08:01:08.928Z,2.69
2023-05-24T08:02:08.852Z,2.95
2023-05-24T08:03:09.039Z,2.81
2023-05-24T08:04:08.974Z,2.97
2023-05-24T08:05:08.915Z,3.17
2023-05-24T08:06:08.885Z,3.21
2023-05-24T08:07:10.869Z,3.11
2023-05-24T08:08:08.900Z,3.16
2023-05-24T08:09:08.915Z,3.35
2023-05-24T08:10:08.913Z,3.53
2023-05-24T08:11:08.935Z,3.71
2023-05-24T08:12:08.900Z,3.92
2023-05-24T08:13:08.910Z,4.11
2023-05-24T08:14:08.912Z,4.22
2023-05-24T08:15:08.969Z,4.40
2023-05-24T08:16:09.043Z,4.59
2023-05-24T08:17:09.031Z,4.65
2023-05-24T08:18:09.150Z,4.55
2023-05-24T08:19:09.157Z,4.85
2023-05-24T08:20:09.316Z,5.03
2023-05-24T08:21:09.314Z,4.81
2023-05-24T08:22:09.358Z,4.19
2023-05-24T08:23:09.397Z,4.33
2023-05-24T08:24:09.794Z,4.81
2023-05-24T08:25:09.533Z,5.01
2023-05-24T08:26:09.608Z,5.22
2023-05-24T08:27:09.651Z,5.47
2023-05-24T08:28:09.760Z,5.57
2023-05-24T08:29:09.781Z,5.81
2023-05-24T08:30:09.832Z,5.96
2023-05-24T08:31:09.899Z,6.05
2023-05-24T08:32:10.040Z,6.26
2023-05-24T08:33:10.021Z,6.22
2023-05-24T08:34:10.010Z,6.22
2023-05-24T08:35:19.590Z,6.20
2023-05-24T08:36:11.058Z,6.20
2023-05-24T08:37:10.084Z,5.81
2023-05-24T08:38:10.048Z,6.27
2023-05-24T08:39:10.043Z,4.51
2023-05-24T08:40:10.100Z,4.88
2023-05-24T08:41:10.053Z,5.69
2023-05-24T08:42:10.615Z,6.45
2023-05-24T08:43:10.006Z,7.18
2023-05-24T08:44:10.032Z,7.46
2023-05-24T08:45:09.997Z,7.84
2023-05-24T08:46:10.015Z,8.25
2023-05-24T08:47:09.992Z,8.49
2023-05-24T08:48:10.103Z,8.59
2023-05-24T08:49:10.069Z,8.46
2023-05-24T08:50:09.987Z,8.43
2023-05-24T08:51:09.948Z,8.59
2023-05-24T08:52:09.965Z,8.22
2023-05-24T08:53:10.001Z,7.90
2023-05-24T08:54:10.021Z,7.15
2023-05-24T08:55:10.021Z,7.58
2023-05-24T08:56:10.066Z,7.81
2023-05-24T08:57:10.084Z,8.54
2023-05-24T08:58:10.077Z,8.74
2023-05-24T08:59:10.112Z,8.63
2023-05-24T09:00:10.153Z,8.97
2023-05-24T09:01:10.211Z,9.09
2023-05-24T09:02:10.189Z,9.21
2023-05-24T09:03:10.246Z,9.13
2023-05-24T09:04:10.267Z,9.11
2023-05-24T09:05:10.204Z,8.94
2023-05-24T09:06:10.176Z,8.83
2023-05-24T09:07:10.174Z,8.83
2023-05-24T09:08:10.249Z,9.12
2023-05-24T09:09:10.208Z,9.25
2023-05-24T09:10:10.231Z,9.16
2023-05-24T09:11:10.240Z,9.16
2023-05-24T09:12:11.096Z,9.19
2023-05-24T09:13:10.264Z,9.21
2023-05-24T09:14:10.273Z,9.23
2023-05-24T09:15:10.257Z,9.32
2023-05-24T09:16:10.266Z,9.36
2023-05-24T09:17:10.210Z,9.78
2023-05-24T09:18:10.245Z,9.87
2023-05-24T09:19:10.176Z,10.04
2023-05-24T09:20:10.400Z,9.73
2023-05-24T09:21:10.199Z,9.82
2023-05-24T09:22:10.172Z,9.60
2023-05-24T09:23:10.157Z,9.73
2023-05-24T09:24:10.156Z,9.59
2023-05-24T09:25:10.274Z,8.89
2023-05-24T09:26:10.196Z,9.55
2023-05-24T09:27:10.144Z,9.62
2023-05-24T09:28:10.191Z,8.19
2023-05-24T09:29:10.115Z,8.32
2023-05-24T09:30:10.395Z,8.00
2023-05-24T09:31:10.139Z,8.19
2023-05-24T09:32:10.099Z,8.34
2023-05-24T09:33:10.147Z,8.50
2023-05-24T09:34:10.076Z,8.47
2023-05-24T09:35:10.416Z,8.47
2023-05-24T09:36:10.107Z,8.44
2023-05-24T09:37:10.083Z,8.57
2023-05-24T09:38:10.064Z,8.50
2023-05-24T09:39:10.032Z,8.26
2023-05-24T09:40:10.059Z,8.19
2023-05-24T09:41:10.040Z,8.39
2023-05-24T09:42:10.031Z,8.23
2023-05-24T09:43:10.202Z,8.16
2023-05-24T09:44:10.012Z,8.14
2023-05-24T09:45:10.062Z,8.21
2023-05-24T09:46:10.003Z,8.08
2023-05-24T09:47:10.037Z,8.10
2023-05-24T09:48:10.033Z,8.15
2023-05-24T09:49:09.985Z,8.02
2023-05-24T09:50:09.969Z,7.99
2023-05-24T09:51:10.112Z,8.00
2023-05-24T09:52:10.093Z,7.98
2023-05-24T09:53:09.935Z,7.91
2023-05-24T09:54:09.946Z,7.85
2023-05-24T09:55:09.950Z,7.76
2023-05-24T09:56:09.965Z,7.74
2023-05-24T09:57:09.926Z,7.73
2023-05-24T09:58:09.893Z,7.70
2023-05-24T09:59:09.949Z,7.65
2023-05-24T10:00:09.877Z,7.57
2023-05-24T10:01:09.919Z,7.51
2023-05-24T10:02:09.909Z,7.44
2023-05-24T10:03:09.923Z,7.38
2023-05-24T10:04:10.518Z,7.29
2023-05-24T10:05:09.887Z,7.30
2023-05-24T10:06:09.842Z,7.30
2023-05-24T10:07:09.832Z,7.24
2023-05-24T10:08:09.833Z,7.14
2023-05-24T10:09:09.950Z,7.14
2023-05-24T10:10:09.813Z,7.11
2023-05-24T10:11:09.823Z,7.11
2023-05-24T10:12:09.838Z,7.04
2023-05-24T10:13:09.789Z,7.09
2023-05-24T10:14:09.779Z,7.04
2023-05-24T10:15:09.767Z,6.84
2023-05-24T10:16:09.907Z,6.85
2023-05-24T10:17:11.382Z,6.76
2023-05-24T10:18:12.236Z,6.73
2023-05-24T10:19:09.789Z,6.74
2023-05-24T10:20:09.781Z,6.74
2023-05-24T10:21:09.815Z,6.75
2023-05-24T10:22:09.734Z,6.73
2023-05-24T10:23:09.732Z,6.75
2023-05-24T10:24:09.730Z,6.58
2023-05-24T10:25:09.749Z,6.57
2023-05-24T10:26:09.777Z,6.54
2023-05-24T10:27:09.695Z,6.63
2023-05-24T10:28:09.696Z,6.49
2023-05-24T10:29:09.657Z,6.49
2023-05-24T10:30:12.173Z,6.36
2023-05-24T10:31:09.700Z,6.37
2023-05-24T10:32:09.761Z,6.37
2023-05-24T10:33:09.727Z,6.37
2023-05-24T10:34:09.664Z,6.43
2023-05-24T10:35:09.638Z,6.22
2023-05-24T10:36:09.980Z,6.15
2023-05-24T10:37:09.609Z,6.21
2023-05-24T10:38:09.652Z,6.23
2023-05-24T10:39:09.596Z,6.10
2023-05-24T10:40:09.613Z,6.12
2023-05-24T10:41:09.724Z,6.10
2023-05-24T10:42:10.127Z,5.98
2023-05-24T10:43:09.588Z,5.97
2023-05-24T10:44:10.284Z,5.92
2023-05-24T10:45:09.572Z,6.06
2023-05-24T10:46:09.581Z,5.90
2023-05-24T10:47:09.569Z,5.84
2023-05-24T10:48:09.599Z,5.65
2023-05-24T10:49:09.581Z,5.75
2023-05-24T10:50:09.540Z,5.70
2023-05-24T10:51:09.515Z,5.55
2023-05-24T10:52:09.521Z,5.73
2023-05-24T10:53:09.488Z,5.61
2023-05-24T10:54:09.504Z,5.59
2023-05-24T10:55:09.571Z,5.52
2023-05-24T10:56:09.474Z,5.44
2023-05-24T10:57:09.507Z,5.39
2023-05-24T10:58:09.481Z,5.45
2023-05-24T10:59:09.480Z,5.49
2023-05-24T11:00:10.090Z,5.68
2023-05-24T11:01:09.450Z,6.34
2023-05-24T11:02:09.636Z,6.16
2023-05-24T11:03:09.798Z,5.83
2023-05-24T11:04:09.433Z,4.85
2023-05-24T11:05:09.488Z,5.65
2023-05-24T11:06:09.414Z,5.42
2023-05-24T11:07:09.436Z,5.85
2023-05-24T11:08:09.472Z,5.97
2023-05-24T11:09:09.396Z,6.23
2023-05-24T11:10:09.412Z,6.27
2023-05-24T11:11:23.328Z,6.58
2023-05-24T11:12:10.364Z,6.60
2023-05-24T11:13:09.379Z,6.68
2023-05-24T11:14:09.349Z,6.81
2023-05-24T11:15:09.363Z,7.10
2023-05-24T11:16:09.381Z,7.44
2023-05-24T11:17:09.350Z,7.62
2023-05-24T11:18:11.028Z,7.65
2023-05-24T11:19:09.325Z,7.64
2023-05-24T11:20:09.377Z,7.74
2023-05-24T11:21:09.337Z,7.83
2023-05-24T11:22:09.418Z,7.96
2023-05-24T11:23:09.523Z,8.08
2023-05-24T11:24:09.546Z,8.05
2023-05-24T11:25:09.568Z,7.68
2023-05-24T11:26:09.625Z,7.82
2023-05-24T11:27:09.696Z,7.73
2023-05-24T11:28:09.751Z,7.86
2023-05-24T11:29:09.777Z,7.76
2023-05-24T11:30:09.871Z,7.78
2023-05-24T11:31:09.964Z,7.58
2023-05-24T11:32:10.163Z,6.01
2023-05-24T11:33:10.065Z,4.78
2023-05-24T11:34:10.093Z,5.01
2023-05-24T11:35:10.077Z,4.56
2023-05-24T11:36:10.049Z,4.54
2023-05-24T11:37:10.072Z,4.24
2023-05-24T11:38:10.069Z,4.27
2023-05-24T11:39:10.054Z,4.24
2023-05-24T11:40:10.240Z,4.09
2023-05-24T11:41:10.085Z,3.66
2023-05-24T11:42:10.109Z,3.44
2023-05-24T11:43:10.069Z,3.27
2023-05-24T11:44:10.106Z,3.16
2023-05-24T11:45:10.141Z,3.19
2023-05-24T11:46:10.194Z,2.94
2023-05-24T11:47:10.229Z,2.93
2023-05-24T11:48:10.281Z,3.03
2023-05-24T11:49:10.233Z,2.83
2023-05-24T11:50:10.384Z,2.76
2023-05-24T11:51:10.310Z,2.74
2023-05-24T11:52:10.366Z,2.61
2023-05-24T11:53:10.402Z,2.56
2023-05-24T11:54:10.407Z,2.58
2023-05-24T11:55:10.489Z,2.38
2023-05-24T11:56:10.528Z,2.26
2023-05-24T11:57:10.560Z,2.38
2023-05-24T11:58:10.606Z,2.26
2023-05-24T11:59:10.675Z,2.18
2023-05-24T12:00:10.759Z,2.19
2023-05-24T12:01:10.803Z,2.10
2023-05-24T12:02:10.930Z,2.00
2023-05-24T12:03:10.990Z,1.85
2023-05-24T12:04:11.008Z,1.78
2023-05-24T12:05:11.018Z,1.71
2023-05-24T12:06:11.066Z,1.63
2023-05-24T12:07:11.132Z,1.57
2023-05-24T12:08:12.698Z,1.51
2023-05-24T12:09:11.166Z,1.36
2023-05-24T12:10:11.208Z,1.32
2023-05-24T12:11:11.232Z,1.30
2023-05-24T12:12:11.245Z,1.27
2023-05-24T12:13:11.248Z,1.27
2023-05-24T12:14:11.241Z,1.24
2023-05-24T12:15:11.275Z,1.20
2023-05-24T12:16:11.289Z,1.24
2023-05-24T12:17:11.256Z,1.17
2023-05-24T12:18:11.533Z,1.22
2023-05-24T12:19:20.099Z,1.18
2023-05-24T12:20:12.358Z,1.18
2023-05-24T12:21:11.214Z,1.18
2023-05-24T12:22:11.240Z,1.19
2023-05-24T12:23:11.213Z,1.22
2023-05-24T12:24:11.218Z,1.23
2023-05-24T12:25:11.199Z,1.19
2023-05-24T12:26:11.217Z,1.17
2023-05-24T12:27:11.166Z,1.19
2023-05-24T12:28:11.192Z,1.17
2023-05-24T12:29:11.158Z,1.20
2023-05-24T12:30:11.155Z,1.14
2023-05-24T12:31:11.153Z,1.04
2023-05-24T12:32:11.167Z,0.95
2023-05-24T12:33:11.191Z,0.93
2023-05-24T12:34:11.115Z,0.87
2023-05-24T12:35:11.136Z,0.83
2023-05-24T12:36:11.147Z,0.81
2023-05-24T12:37:11.105Z,0.80
2023-05-24T12:38:11.108Z,0.78
2023-05-24T12:39:11.103Z,0.75
2023-05-24T12:40:11.099Z,0.75
2023-05-24T12:41:13.126Z,0.76
2023-05-24T12:42:11.094Z,0.76
2023-05-24T12:43:11.072Z,0.77
2023-05-24T12:44:11.057Z,0.77
2023-05-24T12:45:11.076Z,0.75
2023-05-24T12:46:11.061Z,0.77
2023-05-24T12:47:11.098Z,0.75
2023-05-24T12:48:11.075Z,0.77
2023-05-24T12:49:11.049Z,0.76
2023-05-24T12:50:11.038Z,0.76
2023-05-24T12:51:11.023Z,0.76
2023-05-24T12:52:11.012Z,0.73
2023-05-24T12:53:10.996Z,0.73
2023-05-24T12:54:11.018Z,0.73
2023-05-24T12:55:10.994Z,0.73
2023-05-24T12:56:11.001Z,0.73
2023-05-24T12:57:10.978Z,0.73
2023-05-24T12:58:10.981Z,0.72
2023-05-24T12:59:10.954Z,0.69
2023-05-24T13:00:10.962Z,0.66
2023-05-24T13:01:11.018Z,0.65
2023-05-24T13:02:10.958Z,0.66
2023-05-24T13:03:10.955Z,0.64
2023-05-24T13:04:10.933Z,0.63
2023-05-24T13:05:10.962Z,0.64
2023-05-24T13:06:10.928Z,0.62
2023-05-24T13:07:10.911Z,0.59
2023-05-24T13:08:10.899Z,0.59
2023-05-24T13:09:10.927Z,0.60
2023-05-24T13:10:10.896Z,0.58
2023-05-24T13:11:10.880Z,0.56
2023-05-24T13:12:10.872Z,0.55
2023-05-24T13:13:10.869Z,0.53
2023-05-24T13:14:10.882Z,0.54
2023-05-24T13:15:10.847Z,0.53
2023-05-24T13:16:10.920Z,0.51
2023-05-24T13:17:10.863Z,0.50
2023-05-24T13:18:10.885Z,0.52
2023-05-24T13:19:10.810Z,0.50